Time;durP1;ratioP1;P1;durP2;ratioP2;P2;SDS_P1;SDS_P2;PMS_P1;PMS_P2;Temp;Humidity;BMP_temperature;BMP_pressure;BME280_temperature;BME280_humidity;BME280_pressure;Samples;Min_cycle;Max_cycle;Signal;HPM_P1;HPM_P2
2023/10/26 00:01:05;;;;;;;13.10;7.53;;;;;;;;;;6080425;23;20174;-93
2023/10/26 00:04:13;;;;;;;10.15;6.65;;;;;;;;;;6085258;23;20198;-90
2023/10/26 00:07:18;;;;;;;14.05;6.65;;;;;;;;;;6081176;23;20642;-90
2023/10/26 00:10:24;;;;;;;15.20;7.22;;;;;;;;;;6080417;23;20173;-91
2023/10/26 00:13:29;;;;;;;14.07;6.53;;;;;;;;;;6079057;23;20171;-91
2023/10/26 00:16:34;;;;;;;11.35;6.78;;;;;;;;;;6080266;23;20158;-91
2023/10/26 00:19:43;;;;;;;11.30;6.32;;;;;;;;;;6082278;23;20239;-90
2023/10/26 00:22:49;;;;;;;10.07;5.93;;;;;;;;;;6081870;23;20194;-91
2023/10/26 00:25:54;;;;;;;10.80;5.78;;;;;;;;;;6084268;23;20170;-92
2023/10/26 00:28:59;;;;;;;12.68;6.30;;;;;;;;;;6081016;23;20179;-92
2023/10/26 00:32:05;;;;;;;9.68;6.05;;;;;;;;;;6081758;23;20166;-92
2023/10/26 00:35:12;;;;;;;12.52;5.78;;;;;;;;;;6080376;23;20174;-90
2023/10/26 00:38:17;;;;;;;11.65;5.57;;;;;;;;;;6081090;23;20247;-91
2023/10/26 00:41:22;;;;;;;8.75;5.25;;;;;;;;;;6081385;23;20174;-89
2023/10/26 00:44:27;;;;;;;12.80;6.63;;;;;;;;;;6081570;23;20206;-92
2023/10/26 00:47:32;;;;;;;13.65;5.43;;;;;;;;;;6079837;23;20170;-91
2023/10/26 00:50:39;;;;;;;8.52;4.95;;;;;;;;;;6080088;23;20174;-91
2023/10/26 00:53:45;;;;;;;9.43;4.95;;;;;;;;;;6080724;23;20158;-91
2023/10/26 00:56:50;;;;;;;8.95;5.25;;;;;;;;;;6080680;23;20175;-92
2023/10/26 00:59:55;;;;;;;9.50;5.30;;;;;;;;;;6079482;23;20246;-93
2023/10/26 01:03:00;;;;;;;9.25;5.25;;;;;;;;;;6082929;23;20179;-90
2023/10/26 01:06:08;;;;;;;11.88;5.70;;;;;;;;;;6081800;23;20166;-91
2023/10/26 01:09:14;;;;;;;9.65;5.50;;;;;;;;;;6082579;23;20171;-90
2023/10/26 01:12:19;;;;;;;9.35;5.45;;;;;;;;;;6082218;23;20190;-91
2023/10/26 01:15:25;;;;;;;12.52;6.18;;;;;;;;;;6082814;23;20221;-91
2023/10/26 01:18:30;;;;;;;12.90;6.05;;;;;;;;;;6082074;23;20198;-91
2023/10/26 01:21:49;;;;;;;11.32;6.53;;;;;;;;;;6081919;23;20167;-92
2023/10/26 01:24:54;;;;;;;17.02;7.07;;;;;;;;;;6081393;23;20159;-91
2023/10/26 01:27:59;;;;;;;11.65;6.90;;;;;;;;;;6099181;23;20258;-91
2023/10/26 01:31:04;;;;;;;14.15;6.88;;;;;;;;;;6081414;23;20154;-91
2023/10/26 01:34:10;;;;;;;13.35;7.45;;;;;;;;;;6082191;23;20170;-91
2023/10/26 01:37:16;;;;;;;17.15;7.60;;;;;;;;;;6083689;23;20158;-93
2023/10/26 01:40:22;;;;;;;12.15;6.25;;;;;;;;;;6081170;23;20663;-91
2023/10/26 01:43:26;;;;;;;7.45;4.70;;;;;;;;;;6081903;23;20197;-89
2023/10/26 01:46:35;;;;;;;9.05;5.13;;;;;;;;;;6080322;23;20167;-90
2023/10/26 01:49:42;;;;;;;10.95;5.05;;;;;;;;;;6082936;23;20242;-92
2023/10/26 01:52:48;;;;;;;9.45;4.93;;;;;;;;;;6082110;23;20178;-90
2023/10/26 01:55:53;;;;;;;11.25;5.10;;;;;;;;;;6081474;23;20690;-90
2023/10/26 01:58:59;;;;;;;8.15;4.57;;;;;;;;;;6081727;23;20171;-92
2023/10/26 02:02:04;;;;;;;8.75;4.82;;;;;;;;;;6080690;23;20159;-91
2023/10/26 02:05:10;;;;;;;8.40;4.53;;;;;;;;;;6081889;23;20237;-92
2023/10/26 02:08:16;;;;;;;7.47;4.57;;;;;;;;;;6084494;23;20174;-89
2023/10/26 02:11:23;;;;;;;8.35;4.70;;;;;;;;;;6081591;23;20166;-87
2023/10/26 02:14:28;;;;;;;9.07;5.40;;;;;;;;;;6082635;23;20161;-90
2023/10/26 02:17:33;;;;;;;11.70;5.35;;;;;;;;;;6082904;23;20154;-90
2023/10/26 02:20:38;;;;;;;13.65;6.15;;;;;;;;;;6081996;23;20168;-90
2023/10/26 02:23:45;;;;;;;10.63;5.60;;;;;;;;;;6081656;23;20544;-91
2023/10/26 02:26:51;;;;;;;9.75;6.22;;;;;;;;;;6081916;23;20184;-90
2023/10/26 02:29:56;;;;;;;13.52;6.43;;;;;;;;;;6082424;23;20263;-90
2023/10/26 02:33:01;;;;;;;13.80;6.50;;;;;;;;;;6083028;23;20177;-91
2023/10/26 02:36:07;;;;;;;13.18;6.47;;;;;;;;;;6080939;23;20171;-90
2023/10/26 02:39:13;;;;;;;13.80;6.60;;;;;;;;;;6082378;23;20154;-90
2023/10/26 02:42:18;;;;;;;12.80;7.10;;;;;;;;;;6078494;23;20229;-91
2023/10/26 02:45:23;;;;;;;15.07;7.63;;;;;;;;;;6080238;23;20162;-90
2023/10/26 02:48:28;;;;;;;15.18;7.15;;;;;;;;;;6081138;23;20173;-90
2023/10/26 02:51:33;;;;;;;18.60;8.10;;;;;;;;;;6079959;23;20170;-90
2023/10/26 02:54:40;;;;;;;14.63;7.70;;;;;;;;;;6081095;23;20218;-91
2023/10/26 02:57:46;;;;;;;15.32;7.55;;;;;;;;;;6080444;23;20231;-88
2023/10/26 03:00:51;;;;;;;16.30;7.82;;;;;;;;;;6080532;23;20179;-90
2023/10/26 03:03:57;;;;;;;12.23;7.15;;;;;;;;;;6085154;23;20182;-90
2023/10/26 03:07:01;;;;;;;15.93;8.10;;;;;;;;;;6081245;23;20502;-90
2023/10/26 03:10:08;;;;;;;16.30;7.38;;;;;;;;;;6082584;23;20171;-89
2023/10/26 03:13:13;;;;;;;15.43;7.40;;;;;;;;;;6080233;23;20199;-90
2023/10/26 03:16:19;;;;;;;14.15;7.80;;;;;;;;;;6081730;23;20174;-90
2023/10/26 03:19:24;;;;;;;14.50;7.88;;;;;;;;;;6082709;23;20553;-88
2023/10/26 03:22:29;;;;;;;14.00;6.82;;;;;;;;;;6083776;23;20170;-91
2023/10/26 03:25:35;;;;;;;15.13;7.05;;;;;;;;;;6082248;23;20199;-89
2023/10/26 03:28:41;;;;;;;15.75;7.72;;;;;;;;;;6082193;23;20167;-89
2023/10/26 03:31:46;;;;;;;13.65;7.38;;;;;;;;;;6099416;23;20169;-89
2023/10/26 03:34:52;;;;;;;14.13;7.93;;;;;;;;;;6082852;23;20154;-89
2023/10/26 03:37:57;;;;;;;10.98;6.53;;;;;;;;;;6082473;23;20188;-89
2023/10/26 03:41:06;;;;;;;10.90;6.70;;;;;;;;;;6081423;23;20224;-90
2023/10/26 03:44:11;;;;;;;15.43;6.80;;;;;;;;;;6082258;23;20205;-91
2023/10/26 03:47:18;;;;;;;11.70;7.10;;;;;;;;;;6081984;23;20221;-90
2023/10/26 03:50:24;;;;;;;10.07;5.82;;;;;;;;;;6079492;23;20174;-90
2023/10/26 03:53:30;;;;;;;11.98;7.07;;;;;;;;;;6082684;23;20183;-90
2023/10/26 03:56:36;;;;;;;11.10;6.20;;;;;;;;;;6081449;23;20174;-89
2023/10/26 03:59:41;;;;;;;9.00;5.25;;;;;;;;;;6083367;23;20158;-89
2023/10/26 04:02:46;;;;;;;8.65;4.55;;;;;;;;;;6083329;23;20215;-89
2023/10/26 04:05:52;;;;;;;11.85;5.13;;;;;;;;;;6082273;23;20780;-90
2023/10/26 04:08:57;;;;;;;11.95;5.15;;;;;;;;;;6082643;23;20154;-90
2023/10/26 04:12:04;;;;;;;10.15;5.75;;;;;;;;;;6081909;23;20204;-91
2023/10/26 04:15:09;;;;;;;14.63;5.65;;;;;;;;;;6082634;23;20154;-91
2023/10/26 04:18:14;;;;;;;13.25;5.70;;;;;;;;;;6081842;23;20242;-91
2023/10/26 04:21:20;;;;;;;10.18;5.20;;;;;;;;;;6097807;23;20220;-89
2023/10/26 04:24:25;;;;;;;10.07;5.68;;;;;;;;;;6081795;23;20194;-88
2023/10/26 04:27:31;;;;;;;11.02;5.60;;;;;;;;;;6081227;23;20178;-90
2023/10/26 04:30:36;;;;;;;11.07;4.65;;;;;;;;;;6083041;23;20170;-89
2023/10/26 04:33:41;;;;;;;8.48;4.60;;;;;;;;;;6085818;23;20170;-90
2023/10/26 04:36:46;;;;;;;9.50;5.85;;;;;;;;;;6087895;23;20175;-91
2023/10/26 04:39:53;;;;;;;10.63;5.00;;;;;;;;;;6103990;23;20174;-90
2023/10/26 04:43:01;;;;;;;10.40;5.90;;;;;;;;;;6088568;23;20166;-89
2023/10/26 04:46:06;;;;;;;10.00;5.20;;;;;;;;;;6088673;23;20170;-93
2023/10/26 04:49:12;;;;;;;12.73;5.70;;;;;;;;;;6087739;23;20174;-90
2023/10/26 04:52:20;;;;;;;11.73;5.00;;;;;;;;;;6087364;23;20179;-90
2023/10/26 04:55:30;;;;;;;13.15;5.18;;;;;;;;;;6086379;23;20227;-91
2023/10/26 04:58:37;;;;;;;9.20;4.78;;;;;;;;;;6085065;23;20182;-89
2023/10/26 05:01:42;;;;;;;7.57;4.40;;;;;;;;;;6084194;23;20170;-90
2023/10/26 05:04:47;;;;;;;11.23;5.25;;;;;;;;;;6083501;23;20275;-90
2023/10/26 05:07:53;;;;;;;12.77;5.35;;;;;;;;;;6081152;23;20202;-89
2023/10/26 05:10:58;;;;;;;9.20;4.15;;;;;;;;;;6082671;23;20187;-90
2023/10/26 05:14:08;;;;;;;10.40;4.20;;;;;;;;;;6082588;23;20171;-87
2023/10/26 05:17:21;;;;;;;8.27;4.35;;;;;;;;;;6084330;23;20175;-90
2023/10/26 05:20:30;;;;;;;7.78;4.00;;;;;;;;;;6083544;23;20183;-90
2023/10/26 05:23:35;;;;;;;7.90;4.03;;;;;;;;;;6083281;23;20178;-88
2023/10/26 05:26:40;;;;;;;6.60;3.55;;;;;;;;;;6081841;23;20177;-91
2023/10/26 05:29:47;;;;;;;11.77;3.90;;;;;;;;;;6084327;23;20212;-92
2023/10/26 05:32:52;;;;;;;6.85;4.30;;;;;;;;;;6084365;23;20243;-90
2023/10/26 05:35:57;;;;;;;10.63;3.97;;;;;;;;;;6086463;23;20511;-88
2023/10/26 05:39:03;;;;;;;10.90;4.30;;;;;;;;;;6086501;23;20168;-91
2023/10/26 05:42:08;;;;;;;10.40;4.13;;;;;;;;;;6104330;23;20187;-90
2023/10/26 05:45:15;;;;;;;19.50;4.57;;;;;;;;;;6082648;23;20206;-90
2023/10/26 05:48:23;;;;;;;6.88;4.13;;;;;;;;;;6083734;23;20231;-91
2023/10/26 05:51:29;;;;;;;7.68;4.20;;;;;;;;;;6082615;23;20170;-90
2023/10/26 05:54:35;;;;;;;15.05;4.47;;;;;;;;;;6084228;23;20170;-88
2023/10/26 05:57:40;;;;;;;7.53;3.47;;;;;;;;;;6084100;23;20219;-89
2023/10/26 06:00:47;;;;;;;12.07;4.13;;;;;;;;;;6083379;23;20634;-89
2023/10/26 06:07:13;;;;;;;7.18;4.00;;;;;;;;;;6085781;23;20179;-89
2023/10/26 06:10:20;;;;;;;5.97;3.28;;;;;;;;;;6086780;23;20158;-93
2023/10/26 06:13:25;;;;;;;11.40;3.85;;;;;;;;;;6081886;23;20191;-88
2023/10/26 06:16:36;;;;;;;8.80;3.95;;;;;;;;;;6082614;23;20175;-88
2023/10/26 06:19:42;;;;;;;6.95;3.78;;;;;;;;;;6081492;23;20222;-91
2023/10/26 06:22:47;;;;;;;6.03;3.45;;;;;;;;;;6082241;23;20202;-89
2023/10/26 06:25:58;;;;;;;6.47;3.47;;;;;;;;;;6085561;23;20228;-89
2023/10/26 06:29:04;;;;;;;6.53;3.67;;;;;;;;;;6085331;23;20204;-89
2023/10/26 06:32:12;;;;;;;5.70;3.30;;;;;;;;;;6083489;23;20174;-90
2023/10/26 06:35:17;;;;;;;7.07;2.90;;;;;;;;;;6085305;23;20286;-91
2023/10/26 06:38:23;;;;;;;5.72;2.78;;;;;;;;;;6083511;23;20230;-90
2023/10/26 06:41:28;;;;;;;4.93;2.83;;;;;;;;;;6083532;23;20170;-92
2023/10/26 06:44:33;;;;;;;6.03;3.10;;;;;;;;;;6085502;23;20199;-92
2023/10/26 06:47:41;;;;;;;5.13;3.00;;;;;;;;;;6084778;23;20174;-91
2023/10/26 06:50:46;;;;;;;7.80;3.10;;;;;;;;;;6082881;23;20171;-90
2023/10/26 06:53:52;;;;;;;7.25;2.40;;;;;;;;;;6084913;23;20218;-90
2023/10/26 06:56:56;;;;;;;5.10;2.58;;;;;;;;;;6087617;23;20166;-91
2023/10/26 07:00:02;;;;;;;7.70;3.45;;;;;;;;;;6085382;23;20184;-90
2023/10/26 07:03:09;;;;;;;5.57;3.40;;;;;;;;;;6085293;23;20167;-92
2023/10/26 07:06:15;;;;;;;6.68;3.55;;;;;;;;;;6085301;23;20254;-92
2023/10/26 07:09:20;;;;;;;12.18;4.90;;;;;;;;;;6084677;23;20167;-91
2023/10/26 07:12:26;;;;;;;10.02;3.85;;;;;;;;;;6084492;23;20169;-90
2023/10/26 07:15:31;;;;;;;8.55;3.33;;;;;;;;;;6084018;23;20190;-88
2023/10/26 07:18:39;;;;;;;7.10;3.83;;;;;;;;;;6084007;23;20265;-89
2023/10/26 07:21:44;;;;;;;7.18;3.92;;;;;;;;;;6084337;23;20171;-88
2023/10/26 07:24:49;;;;;;;10.50;4.00;;;;;;;;;;6084822;23;20182;-89
2023/10/26 07:27:56;;;;;;;6.63;3.72;;;;;;;;;;6086254;23;20617;-90
2023/10/26 07:31:02;;;;;;;8.02;4.22;;;;;;;;;;6085842;23;20167;-90
2023/10/26 07:37:42;;;;;;;8.38;4.25;;;;;;;;;;6090401;23;20195;-89
2023/10/26 07:40:50;;;;;;;10.65;3.75;;;;;;;;;;6084783;23;20158;-92
2023/10/26 07:43:56;;;;;;;7.78;3.85;;;;;;;;;;6085392;23;20179;-89
2023/10/26 07:47:01;;;;;;;7.97;3.45;;;;;;;;;;6102601;23;20175;-90
2023/10/26 07:50:08;;;;;;;7.07;3.30;;;;;;;;;;6084622;23;20239;-89
2023/10/26 07:53:16;;;;;;;10.10;3.58;;;;;;;;;;6082818;23;20166;-89
2023/10/26 07:56:26;;;;;;;4.30;2.55;;;;;;;;;;6100852;23;20170;-91
2023/10/26 07:59:32;;;;;;;6.75;2.65;;;;;;;;;;6085668;23;20229;-90
2023/10/26 08:02:41;;;;;;;6.53;3.33;;;;;;;;;;6084917;23;20186;-88
2023/10/26 08:06:00;;;;;;;5.00;2.78;;;;;;;;;;6083514;23;20194;-90
2023/10/26 08:09:07;;;;;;;5.70;2.25;;;;;;;;;;6086208;23;20186;-92
2023/10/26 08:12:13;;;;;;;2.28;1.70;;;;;;;;;;6104790;23;20170;-90
2023/10/26 08:15:20;;;;;;;4.28;1.65;;;;;;;;;;6088551;23;20178;-91
2023/10/26 08:18:26;;;;;;;4.05;1.67;;;;;;;;;;6087215;23;20177;-89
2023/10/26 08:21:33;;;;;;;3.22;1.33;;;;;;;;;;6086186;23;20174;-91
2023/10/26 08:24:39;;;;;;;6.07;2.13;;;;;;;;;;6087239;23;20278;-90
2023/10/26 08:27:45;;;;;;;2.28;0.70;;;;;;;;;;6088006;23;20170;-91
2023/10/26 08:30:52;;;;;;;2.55;0.70;;;;;;;;;;6087435;23;20231;-92
2023/10/26 08:33:58;;;;;;;0.90;0.45;;;;;;;;;;6086549;23;20225;-90
2023/10/26 08:37:05;;;;;;;2.25;0.77;;;;;;;;;;6085382;23;20171;-89
2023/10/26 08:40:20;;;;;;;1.63;0.90;;;;;;;;;;6085485;23;20215;-89
2023/10/26 08:43:26;;;;;;;2.00;0.60;;;;;;;;;;6088898;23;20174;-90
2023/10/26 08:46:31;;;;;;;2.13;0.70;;;;;;;;;;6084666;23;20201;-90
2023/10/26 08:49:38;;;;;;;0.93;0.60;;;;;;;;;;6085951;23;20230;-91
2023/10/26 08:52:46;;;;;;;1.90;0.85;;;;;;;;;;6085577;23;20246;-92
2023/10/26 08:55:54;;;;;;;1.95;0.60;;;;;;;;;;6086448;23;20175;-92
2023/10/26 08:59:02;;;;;;;1.48;0.80;;;;;;;;;;6085790;23;20246;-90
2023/10/26 09:02:08;;;;;;;2.78;1.00;;;;;;;;;;6085532;23;20174;-90
2023/10/26 09:05:15;;;;;;;2.65;1.10;;;;;;;;;;6087556;23;20215;-93
2023/10/26 09:08:27;;;;;;;2.33;0.98;;;;;;;;;;6088524;23;20179;-91
2023/10/26 09:11:32;;;;;;;1.98;1.08;;;;;;;;;;6087887;23;20642;-92
2023/10/26 09:14:38;;;;;;;2.45;1.17;;;;;;;;;;6085481;23;20175;-90
2023/10/26 09:17:44;;;;;;;2.70;1.00;;;;;;;;;;6101714;23;20170;-91
2023/10/26 09:21:05;;;;;;;2.45;1.10;;;;;;;;;;6087922;23;20233;-92
2023/10/26 09:24:21;;;;;;;3.60;1.40;;;;;;;;;;6087066;23;20175;-88
2023/10/26 09:27:26;;;;;;;3.45;1.20;;;;;;;;;;6087948;23;20174;-90
2023/10/26 09:30:32;;;;;;;2.22;1.17;;;;;;;;;;6085268;23;20174;-90
2023/10/26 09:33:38;;;;;;;5.47;1.23;;;;;;;;;;6083258;23;20178;-90
2023/10/26 09:36:43;;;;;;;3.08;1.10;;;;;;;;;;6085945;23;20170;-91
2023/10/26 09:39:52;;;;;;;1.73;1.02;;;;;;;;;;6084304;23;20227;-89
2023/10/26 09:42:58;;;;;;;5.18;1.20;;;;;;;;;;6081760;23;20171;-91
2023/10/26 09:46:05;;;;;;;2.20;1.10;;;;;;;;;;6084493;23;20243;-89
2023/10/26 09:52:30;;;;;;;7.25;2.92;;;;;;;;;;6083446;23;20226;-91
2023/10/26 09:55:37;;;;;;;2.28;1.13;;;;;;;;;;6087265;23;20171;-92
2023/10/26 09:58:54;;;;;;;4.07;0.90;;;;;;;;;;6089169;23;20417;-89
2023/10/26 10:02:01;;;;;;;2.42;1.20;;;;;;;;;;6099900;23;20231;-90
2023/10/26 10:05:08;;;;;;;2.10;0.98;;;;;;;;;;6099133;23;20193;-91
2023/10/26 10:11:38;;;;;;;2.53;1.10;;;;;;;;;;6087592;23;20158;-90
2023/10/26 10:14:57;;;;;;;6.30;1.38;;;;;;;;;;6087370;23;20229;-89
2023/10/26 10:18:03;;;;;;;2.03;1.10;;;;;;;;;;6083875;23;20245;-90
2023/10/26 10:21:24;;;;;;;2.33;1.08;;;;;;;;;;6083962;23;20171;-89
2023/10/26 10:28:12;;;;;;;3.25;0.90;;;;;;;;;;6084911;23;20171;-92
2023/10/26 10:31:23;;;;;;;2.28;0.70;;;;;;;;;;6101350;23;20175;-91
2023/10/26 10:34:30;;;;;;;1.67;0.90;;;;;;;;;;6082027;23;20171;-90
2023/10/26 10:37:36;;;;;;;3.22;1.00;;;;;;;;;;6082889;23;20175;-91
2023/10/26 10:40:43;;;;;;;1.40;0.50;;;;;;;;;;6085781;23;20182;-91
2023/10/26 10:43:51;;;;;;;1.40;0.60;;;;;;;;;;6099745;23;20183;-89
2023/10/26 10:46:56;;;;;;;1.55;0.50;;;;;;;;;;6083170;23;20197;-91
2023/10/26 10:50:19;;;;;;;2.53;0.90;;;;;;;;;;6083570;23;20238;-89
2023/10/26 10:53:24;;;;;;;1.50;0.73;;;;;;;;;;6082199;23;20223;-89
2023/10/26 10:56:29;;;;;;;2.05;0.70;;;;;;;;;;6082487;23;20170;-92
2023/10/26 10:59:36;;;;;;;8.20;3.13;;;;;;;;;;6081858;23;20218;-90
2023/10/26 11:02:47;;;;;;;10.35;2.80;;;;;;;;;;6082563;23;20631;-90
2023/10/26 11:05:53;;;;;;;2.78;1.42;;;;;;;;;;6083601;23;20198;-89
2023/10/26 11:08:58;;;;;;;2.03;0.90;;;;;;;;;;6082715;23;20194;-90
2023/10/26 11:12:09;;;;;;;1.67;0.80;;;;;;;;;;6083130;23;20622;-91
2023/10/26 11:15:16;;;;;;;1.20;0.80;;;;;;;;;;6079745;23;20170;-90
2023/10/26 11:18:22;;;;;;;1.80;1.10;;;;;;;;;;6082279;23;20194;-91
2023/10/26 11:21:32;;;;;;;3.05;1.23;;;;;;;;;;6081499;23;20243;-90
2023/10/26 11:24:38;;;;;;;1.88;1.08;;;;;;;;;;6083237;23;20171;-89
2023/10/26 11:27:46;;;;;;;2.88;1.13;;;;;;;;;;6081811;23;20587;-92
2023/10/26 11:30:56;;;;;;;2.72;1.00;;;;;;;;;;6098583;23;20314;-90
2023/10/26 11:34:06;;;;;;;4.43;1.20;;;;;;;;;;6085701;23;20190;-90
2023/10/26 11:37:12;;;;;;;3.67;1.08;;;;;;;;;;6083571;23;20182;-91
2023/10/26 11:43:38;;;;;;;2.08;1.10;;;;;;;;;;6086528;23;20166;-90
2023/10/26 11:46:47;;;;;;;3.47;1.25;;;;;;;;;;6086550;23;20189;-89
2023/10/26 11:49:55;;;;;;;2.70;1.40;;;;;;;;;;6085881;23;20170;-87
2023/10/26 12:03:12;;;;;;;2.35;1.38;;;;;;;;;;6089094;23;20199;-89
2023/10/26 12:06:21;;;;;;;3.88;1.38;;;;;;;;;;6086811;23;20214;-89
2023/10/26 12:09:26;;;;;;;4.82;1.35;;;;;;;;;;6087231;23;20173;-91
2023/10/26 12:12:32;;;;;;;3.15;0.93;;;;;;;;;;6089415;23;20158;-90
2023/10/26 12:15:38;;;;;;;3.35;1.30;;;;;;;;;;6087557;23;20621;-91
2023/10/26 12:22:27;;;;;;;4.22;0.95;;;;;;;;;;6087550;23;20171;-89
2023/10/26 12:29:04;;;;;;;3.42;0.80;;;;;;;;;;6086467;23;20193;-88
2023/10/26 12:32:09;;;;;;;2.05;1.05;;;;;;;;;;6086206;23;20495;-92
2023/10/26 12:35:20;;;;;;;1.17;0.70;;;;;;;;;;6085450;23;20181;-91
2023/10/26 12:38:28;;;;;;;1.75;0.73;;;;;;;;;;6085908;23;20185;-89
2023/10/26 12:41:35;;;;;;;2.35;0.75;;;;;;;;;;6086654;23;20331;-91
2023/10/26 12:44:42;;;;;;;1.63;0.75;;;;;;;;;;6086073;23;20175;-90
2023/10/26 12:47:48;;;;;;;3.28;0.73;;;;;;;;;;6087740;23;20178;-92
2023/10/26 12:50:54;;;;;;;2.22;0.80;;;;;;;;;;6085120;23;20170;-87
2023/10/26 12:54:01;;;;;;;3.25;0.80;;;;;;;;;;6083036;23;20162;-90
2023/10/26 12:57:06;;;;;;;2.72;1.30;;;;;;;;;;6083169;23;20192;-90
2023/10/26 13:00:12;;;;;;;6.28;1.30;;;;;;;;;;6100591;23;20178;-90
2023/10/26 13:03:18;;;;;;;3.85;1.02;;;;;;;;;;6083442;23;20178;-91
2023/10/26 13:06:23;;;;;;;3.15;1.05;;;;;;;;;;6083802;23;20194;-91
2023/10/26 13:09:33;;;;;;;3.47;1.30;;;;;;;;;;6082569;23;20297;-92
2023/10/26 13:15:59;;;;;;;1.98;1.10;;;;;;;;;;6087639;23;20227;-92
2023/10/26 13:19:05;;;;;;;2.47;1.50;;;;;;;;;;6085047;23;20198;-92
2023/10/26 13:22:10;;;;;;;5.38;1.40;;;;;;;;;;6100532;23;20175;-91
2023/10/26 13:25:17;;;;;;;5.25;1.17;;;;;;;;;;6082991;23;20213;-90
2023/10/26 13:28:23;;;;;;;3.40;1.30;;;;;;;;;;6086980;23;20180;-92
2023/10/26 13:31:28;;;;;;;4.88;1.20;;;;;;;;;;6087255;23;20166;-91
2023/10/26 13:34:34;;;;;;;2.35;1.20;;;;;;;;;;6084527;23;20233;-91
2023/10/26 13:37:39;;;;;;;3.63;1.67;;;;;;;;;;6085084;23;20219;-91
2023/10/26 13:40:52;;;;;;;6.80;2.15;;;;;;;;;;6083762;23;20170;-92
2023/10/26 13:43:59;;;;;;;3.70;1.40;;;;;;;;;;6084500;23;20179;-91
2023/10/26 13:47:05;;;;;;;5.85;1.50;;;;;;;;;;6082417;23;20287;-90
2023/10/26 13:50:10;;;;;;;10.48;3.70;;;;;;;;;;6083240;23;20275;-89
2023/10/26 13:53:15;;;;;;;5.55;1.90;;;;;;;;;;6082962;23;20476;-92
2023/10/26 13:56:23;;;;;;;22.90;12.48;;;;;;;;;;6083853;23;20183;-90
2023/10/26 13:59:29;;;;;;;5.47;2.08;;;;;;;;;;6081493;23;20178;-90
2023/10/26 14:02:34;;;;;;;28.15;14.93;;;;;;;;;;6082447;23;20188;-91
2023/10/26 14:05:40;;;;;;;3.58;1.52;;;;;;;;;;6082401;23;20257;-92
2023/10/26 14:08:45;;;;;;;7.60;1.50;;;;;;;;;;6081130;23;20186;-91
2023/10/26 14:12:01;;;;;;;6.65;3.35;;;;;;;;;;6086705;23;20237;-92
2023/10/26 14:15:07;;;;;;;2.45;1.60;;;;;;;;;;6088287;23;20183;-90
2023/10/26 14:18:13;;;;;;;3.05;1.33;;;;;;;;;;6087652;23;20182;-90
2023/10/26 14:53:27;;;;;;;4.53;1.55;;;;;;;;;;6088749;23;20214;-92
2023/10/26 14:56:33;;;;;;;3.90;1.52;;;;;;;;;;6087468;23;20174;-89
2023/10/26 15:02:58;;;;;;;1.63;1.02;;;;;;;;;;6087533;23;20212;-90
2023/10/26 15:06:04;;;;;;;4.43;1.00;;;;;;;;;;6102865;23;20215;-90
2023/10/26 15:09:11;;;;;;;10.07;3.28;;;;;;;;;;6086599;23;20175;-92
2023/10/26 15:12:16;;;;;;;2.80;1.00;;;;;;;;;;6087738;23;20187;-91
2023/10/26 15:15:24;;;;;;;6.32;1.90;;;;;;;;;;6085821;23;20513;-89
2023/10/26 15:18:30;;;;;;;2.30;1.40;;;;;;;;;;6086126;23;20214;-91
2023/10/26 15:21:37;;;;;;;5.47;1.70;;;;;;;;;;6103816;23;20181;-90
2023/10/26 15:24:47;;;;;;;5.38;2.05;;;;;;;;;;6103321;23;20572;-91
2023/10/26 15:27:52;;;;;;;3.50;1.45;;;;;;;;;;6086768;23;20189;-92
2023/10/26 15:30:57;;;;;;;2.88;1.77;;;;;;;;;;6084321;23;20170;-91
2023/10/26 15:34:03;;;;;;;4.22;1.77;;;;;;;;;;6083118;23;20170;-91
2023/10/26 15:37:12;;;;;;;6.35;2.40;;;;;;;;;;6083503;23;20169;-91
2023/10/26 15:40:20;;;;;;;3.22;1.92;;;;;;;;;;6083437;23;20170;-91
2023/10/26 15:43:26;;;;;;;16.05;5.68;;;;;;;;;;6086202;23;20182;-89
2023/10/26 15:46:32;;;;;;;5.35;2.33;;;;;;;;;;6085779;23;20251;-90
2023/10/26 15:49:37;;;;;;;4.30;1.90;;;;;;;;;;6101794;23;20154;-90
2023/10/26 15:52:43;;;;;;;2.90;1.77;;;;;;;;;;6084128;23;20174;-91
2023/10/26 15:55:57;;;;;;;3.50;1.80;;;;;;;;;;6082415;23;20204;-90
2023/10/26 15:59:03;;;;;;;3.75;1.98;;;;;;;;;;6080752;23;20174;-90
2023/10/26 16:02:08;;;;;;;4.05;2.15;;;;;;;;;;6083646;23;20224;-90
2023/10/26 16:05:16;;;;;;;6.05;2.30;;;;;;;;;;6084709;23;20281;-88
2023/10/26 16:08:21;;;;;;;4.45;2.25;;;;;;;;;;6101106;23;20205;-91
2023/10/26 16:11:28;;;;;;;4.80;2.00;;;;;;;;;;6082225;23;20627;-91
2023/10/26 16:14:35;;;;;;;6.57;2.40;;;;;;;;;;6090462;23;20179;-89
2023/10/26 20:57:27;;;;;;;14.23;8.40;;;;;;;;;;6058836;23;20218;-91
2023/10/26 21:00:34;;;;;;;13.63;8.30;;;;;;;;;;6088514;23;20157;-91
2023/10/26 21:03:40;;;;;;;12.93;7.82;;;;;;;;;;6084762;23;20161;-92
2023/10/26 21:06:46;;;;;;;16.23;8.07;;;;;;;;;;6101274;23;20181;-93
2023/10/26 21:18:41;;;;;;;13.98;7.30;;;;;;;;;;6057353;23;20257;-91
2023/10/26 21:21:46;;;;;;;15.18;7.30;;;;;;;;;;6100774;23;20242;-91
2023/10/26 21:24:51;;;;;;;12.07;7.38;;;;;;;;;;6084186;23;20171;-92
2023/10/26 21:27:56;;;;;;;14.85;8.02;;;;;;;;;;6083476;23;20302;-89
2023/10/26 21:31:02;;;;;;;13.27;7.35;;;;;;;;;;6081730;23;20596;-90
2023/10/26 21:34:09;;;;;;;15.65;7.50;;;;;;;;;;6086223;23;20170;-91
2023/10/26 21:37:15;;;;;;;14.57;7.35;;;;;;;;;;6089067;23;20170;-93
2023/10/26 21:40:23;;;;;;;13.73;7.38;;;;;;;;;;6085270;23;20187;-91
2023/10/26 21:43:29;;;;;;;14.70;7.60;;;;;;;;;;6087504;23;20171;-91
2023/10/26 21:46:35;;;;;;;19.85;7.60;;;;;;;;;;6085515;23;20211;-91
2023/10/26 21:49:42;;;;;;;16.88;7.80;;;;;;;;;;6085252;23;20155;-92
2023/10/26 21:52:48;;;;;;;16.83;9.13;;;;;;;;;;6087732;23;20171;-91
2023/10/26 21:55:53;;;;;;;13.57;8.15;;;;;;;;;;6085746;23;20182;-90
2023/10/26 21:58:57;;;;;;;13.82;8.13;;;;;;;;;;6085398;23;20223;-92
2023/10/26 22:02:03;;;;;;;18.40;8.80;;;;;;;;;;6086451;23;20598;-92
2023/10/26 22:05:11;;;;;;;17.85;7.82;;;;;;;;;;6085872;23;20211;-91
2023/10/26 22:08:16;;;;;;;15.52;8.00;;;;;;;;;;6086114;23;20198;-93
2023/10/26 22:11:23;;;;;;;11.82;7.80;;;;;;;;;;6084836;23;20174;-91
2023/10/26 22:14:29;;;;;;;15.52;7.57;;;;;;;;;;6083265;23;20158;-89
2023/10/26 22:17:34;;;;;;;12.38;7.40;;;;;;;;;;6082876;23;20626;-92
2023/10/26 22:20:41;;;;;;;14.48;8.10;;;;;;;;;;6083659;23;20215;-90
2023/10/26 22:23:48;;;;;;;14.05;7.93;;;;;;;;;;6083758;23;20548;-92
2023/10/26 22:26:53;;;;;;;15.18;7.97;;;;;;;;;;6082017;23;20178;-91
2023/10/26 22:29:59;;;;;;;15.05;7.68;;;;;;;;;;6081901;23;20235;-92
2023/10/26 22:33:04;;;;;;;15.35;8.38;;;;;;;;;;6083475;23;20210;-91
2023/10/26 22:36:12;;;;;;;12.95;8.25;;;;;;;;;;6084071;23;20170;-93
2023/10/26 22:39:17;;;;;;;14.43;7.88;;;;;;;;;;6083786;23;20286;-92
2023/10/26 22:42:22;;;;;;;13.20;7.80;;;;;;;;;;6082398;23;20170;-91
2023/10/26 22:45:27;;;;;;;12.27;7.60;;;;;;;;;;6080201;23;20155;-87
2023/10/26 22:48:32;;;;;;;18.90;9.80;;;;;;;;;;6080437;23;20183;-92
2023/10/26 22:51:39;;;;;;;16.52;8.80;;;;;;;;;;6081436;23;20175;-93
2023/10/26 22:54:44;;;;;;;17.98;9.93;;;;;;;;;;6081572;23;20223;-92
2023/10/26 22:57:49;;;;;;;19.58;11.60;;;;;;;;;;6081423;23;20630;-92
2023/10/26 23:00:55;;;;;;;14.20;7.95;;;;;;;;;;6096289;23;20170;-93
2023/10/26 23:04:00;;;;;;;12.35;7.57;;;;;;;;;;6080756;23;20162;-93
2023/10/26 23:07:07;;;;;;;11.77;6.18;;;;;;;;;;6081381;23;20591;-90
2023/10/26 23:10:12;;;;;;;10.35;6.70;;;;;;;;;;6079478;23;20175;-93
2023/10/26 23:13:17;;;;;;;12.48;6.68;;;;;;;;;;6080471;23;20191;-91
2023/10/26 23:16:24;;;;;;;13.20;7.65;;;;;;;;;;6090475;23;20220;-91
2023/10/26 23:19:29;;;;;;;13.13;7.43;;;;;;;;;;6102888;23;20182;-90
2023/10/26 23:22:36;;;;;;;13.10;7.03;;;;;;;;;;6079733;23;20170;-91
2023/10/26 23:25:44;;;;;;;12.98;6.45;;;;;;;;;;6082097;23;20274;-90
2023/10/26 23:28:49;;;;;;;14.90;6.90;;;;;;;;;;6081774;23;20215;-91
2023/10/26 23:31:54;;;;;;;12.63;6.72;;;;;;;;;;6081909;23;20155;-91
2023/10/26 23:34:59;;;;;;;9.63;6.13;;;;;;;;;;6082194;23;20246;-92
2023/10/26 23:38:06;;;;;;;12.35;6.40;;;;;;;;;;6083642;23;20229;-91
2023/10/26 23:41:11;;;;;;;16.60;7.72;;;;;;;;;;6082315;23;20171;-91
2023/10/26 23:44:17;;;;;;;14.02;7.20;;;;;;;;;;6082750;23;20170;-91
2023/10/26 23:47:22;;;;;;;13.02;6.88;;;;;;;;;;6082093;23;20158;-90
2023/10/26 23:50:27;;;;;;;14.02;6.40;;;;;;;;;;6082772;23;20166;-91
2023/10/26 23:53:34;;;;;;;19.08;7.20;;;;;;;;;;6083747;23;20175;-91
2023/10/26 23:56:39;;;;;;;11.07;7.03;;;;;;;;;;6083052;23;20246;-94
2023/10/26 23:59:45;;;;;;;12.55;6.90;;;;;;;;;;6098058;23;20179;-91
